Time;durP1;ratioP1;P1;durP2;ratioP2;P2;SDS_P1;SDS_P2;PMS_P1;PMS_P2;Temp;Humidity;BMP_temperature;BMP_pressure;BME280_temperature;BME280_humidity;BME280_pressure;Samples;Min_cycle;Max_cycle;Signal;HPM_P1;HPM_P2
2022/06/08 00:00:56;;;;;;;;;4.00;4.00;;;;;;;;5209143;28;8787;-68
2022/06/08 00:03:56;;;;;;;;;5.40;5.40;;;;;;;;5227472;28;9531;-69
2022/06/08 00:06:27;;;;;;;;;3.00;3.00;;;;;;;;5192989;28;8795;-68
2022/06/08 00:09:17;;;;;;;;;5.00;5.00;;;;;;;;5227349;28;8783;-68
2022/06/08 00:11:48;;;;;;;;;4.40;4.40;;;;;;;;5210258;28;8798;-68
2022/06/08 00:14:38;;;;;;;;;3.00;3.00;;;;;;;;5195456;28;8783;-69
2022/06/08 00:17:09;;;;;;;;;0.80;0.80;;;;;;;;5209027;28;8838;-68
2022/06/08 00:19:40;;;;;;;;;3.75;3.75;;;;;;;;5192492;28;8797;-68
2022/06/08 00:22:11;;;;;;;;;2.67;2.67;;;;;;;;5215090;28;8789;-69
2022/06/08 00:25:01;;;;;;;;;7.50;7.50;;;;;;;;5232587;28;12114;-68
2022/06/08 00:27:33;;;;;;;;;1.00;1.00;;;;;;;;5213056;28;8789;-69
2022/06/08 00:30:06;;;;;;;;;7.00;7.00;;;;;;;;5229270;28;8789;-69
2022/06/08 00:32:38;;;;;;;;;8.20;8.20;;;;;;;;5229765;28;8865;-68
2022/06/08 00:35:11;;;;;;;;;2.75;2.75;;;;;;;;5212796;28;8781;-68
2022/06/08 00:37:42;;;;;;;;;1.50;1.50;;;;;;;;5228787;28;8852;-68
2022/06/08 00:40:15;;;;;;;;;13.25;13.25;;;;;;;;5229186;28;8830;-68
2022/06/08 00:42:46;;;;;;;;;9.00;9.00;;;;;;;;5233901;28;11441;-68
2022/06/08 00:45:20;;;;;;;;;9.80;9.80;;;;;;;;5225823;28;8787;-69
2022/06/08 00:47:59;;;;;;;;;14.00;14.00;;;;;;;;5208634;28;8783;-68
2022/06/08 00:50:34;;;;;;;;;7.00;7.00;;;;;;;;5226319;28;8794;-69
2022/06/08 00:53:34;;;;;;;;;10.00;10.00;;;;;;;;5226311;28;8868;-69
2022/06/08 00:56:07;;;;;;;;;7.80;7.80;;;;;;;;5207699;28;8855;-68
2022/06/08 00:58:38;;;;;;;;;9.00;9.00;;;;;;;;5208156;28;9530;-69
2022/06/08 01:01:10;;;;;;;;;15.00;15.00;;;;;;;;5208545;28;8944;-69
2022/06/08 01:03:41;;;;;;;;;5.60;5.60;;;;;;;;5212511;28;8798;-69
2022/06/08 01:06:19;;;;;;;;;5.80;5.80;;;;;;;;5228616;28;8804;-69
2022/06/08 01:08:52;;;;;;;;;9.75;9.75;;;;;;;;5228844;28;8792;-68
2022/06/08 01:11:43;;;;;;;;;10.60;10.40;;;;;;;;5214826;28;8925;-68
2022/06/08 01:14:34;;;;;;;;;9.40;8.60;;;;;;;;5246592;28;8797;-68
2022/06/08 01:17:10;;;;;;;;;8.00;8.00;;;;;;;;5227816;28;8797;-68
2022/06/08 01:19:46;;;;;;;;;1.80;1.80;;;;;;;;5211795;28;8854;-68
2022/06/08 01:22:20;;;;;;;;;4.00;4.00;;;;;;;;5216064;28;8817;-68
2022/06/08 01:24:55;;;;;;;;;10.60;10.60;;;;;;;;5191273;28;8799;-69
2022/06/08 01:27:43;;;;;;;;;8.25;8.25;;;;;;;;5207800;28;8787;-70
2022/06/08 01:30:17;;;;;;;;;4.00;4.00;;;;;;;;5207431;28;8775;-70
2022/06/08 01:33:08;;;;;;;;;6.40;6.40;;;;;;;;5208026;28;8799;-69
2022/06/08 01:35:42;;;;;;;;;4.50;4.50;;;;;;;;5207193;28;8786;-70
2022/06/08 01:38:13;;;;;;;;;1.50;1.50;;;;;;;;5203490;28;8890;-69
2022/06/08 01:40:45;;;;;;;;;3.40;3.40;;;;;;;;5188421;28;8820;-69
2022/06/08 01:43:19;;;;;;;;;5.20;5.20;;;;;;;;5211856;28;8777;-68
2022/06/08 01:46:06;;;;;;;;;4.00;3.50;;;;;;;;5246177;28;9459;-69
2022/06/08 01:48:37;;;;;;;;;8.00;8.00;;;;;;;;5228222;28;9488;-69
2022/06/08 01:51:08;;;;;;;;;11.60;11.60;;;;;;;;5227793;28;8799;-69
2022/06/08 01:53:44;;;;;;;;;1.67;1.67;;;;;;;;5211648;28;8800;-70
2022/06/08 01:56:31;;;;;;;;;5.25;5.25;;;;;;;;5238246;28;8806;-68
2022/06/08 01:59:10;;;;;;;;;3.60;3.60;;;;;;;;5190936;28;8813;-69
2022/06/08 02:01:47;;;;;;;;;2.25;2.25;;;;;;;;5218862;28;8899;-69
2022/06/08 02:04:31;;;;;;;;;3.40;3.40;;;;;;;;5227960;28;8793;-69
2022/06/08 02:07:21;;;;;;;;;20.60;20.20;;;;;;;;5211671;28;8890;-68
2022/06/08 02:09:56;;;;;;;;;7.00;7.00;;;;;;;;5211109;28;8801;-68
2022/06/08 02:12:50;;;;;;;;;1.67;1.67;;;;;;;;5228045;28;8784;-68
2022/06/08 02:15:29;;;;;;;;;3.00;3.00;;;;;;;;5206686;28;8791;-69
2022/06/08 02:18:11;;;;;;;;;2.75;2.75;;;;;;;;5207193;28;8936;-71
2022/06/08 02:20:54;;;;;;;;;3.25;3.25;;;;;;;;5191233;28;8795;-70
2022/06/08 02:23:37;;;;;;;;;4.25;4.25;;;;;;;;5203003;28;8806;-69
2022/06/08 02:26:13;;;;;;;;;2.00;2.00;;;;;;;;5190978;28;8939;-66
2022/06/08 02:28:58;;;;;;;;;1.00;1.00;;;;;;;;5226657;28;9543;-67
2022/06/08 02:31:39;;;;;;;;;3.50;3.50;;;;;;;;5211366;28;8795;-69
2022/06/08 02:34:28;;;;;;;;;3.75;3.00;;;;;;;;5211502;28;8798;-67
2022/06/08 02:37:03;;;;;;;;;4.50;4.50;;;;;;;;5191364;28;8910;-68
2022/06/08 02:39:38;;;;;;;;;3.75;3.75;;;;;;;;5191220;28;8779;-68
2022/06/08 02:42:30;;;;;;;;;3.00;3.00;;;;;;;;5225009;28;9541;-68
2022/06/08 02:45:23;;;;;;;;;4.00;4.00;;;;;;;;5207239;28;8782;-69
2022/06/08 02:48:00;;;;;;;;;1.00;1.00;;;;;;;;5194241;28;8864;-69
2022/06/08 02:50:33;;;;;;;;;2.75;2.75;;;;;;;;5194412;28;9003;-69
2022/06/08 02:53:30;;;;;;;;;4.50;3.75;;;;;;;;5228321;28;8791;-69
2022/06/08 02:56:18;;;;;;;;;0.75;0.75;;;;;;;;5190865;28;8811;-68
2022/06/08 02:59:04;;;;;;;;;2.25;2.25;;;;;;;;5210481;28;8867;-70
2022/06/08 03:01:57;;;;;;;;;2.00;2.00;;;;;;;;5230892;28;8787;-70
2022/06/08 03:04:34;;;;;;;;;4.75;4.75;;;;;;;;5231010;28;8788;-69
2022/06/08 03:07:08;;;;;;;;;4.40;4.40;;;;;;;;5214304;28;8781;-68
2022/06/08 03:09:42;;;;;;;;;2.60;2.60;;;;;;;;5214459;28;8785;-68
2022/06/08 03:12:33;;;;;;;;;5.00;5.00;;;;;;;;5233093;28;9546;-68
2022/06/08 03:15:07;;;;;;;;;3.75;3.75;;;;;;;;5235917;28;9517;-68
2022/06/08 03:17:39;;;;;;;;;2.00;2.00;;;;;;;;5207808;28;9579;-68
2022/06/08 03:20:13;;;;;;;;;5.00;5.00;;;;;;;;5240125;28;8817;-68
2022/06/08 03:22:44;;;;;;;;;2.50;2.50;;;;;;;;5226582;28;8896;-68
2022/06/08 03:25:17;;;;;;;;;1.25;1.25;;;;;;;;5201181;28;8779;-68
2022/06/08 03:27:51;;;;;;;;;3.00;3.00;;;;;;;;5217940;28;8799;-68
2022/06/08 03:30:23;;;;;;;;;2.00;2.00;;;;;;;;5218754;28;8800;-68
2022/06/08 03:32:55;;;;;;;;;0.50;0.50;;;;;;;;5227017;28;8806;-68
2022/06/08 03:35:44;;;;;;;;;4.00;4.00;;;;;;;;5196183;28;8778;-68
2022/06/08 03:38:16;;;;;;;;;1.00;1.00;;;;;;;;5209856;28;8815;-67
2022/06/08 03:41:05;;;;;;;;;5.00;4.75;;;;;;;;5209541;28;8795;-67
2022/06/08 03:43:55;;;;;;;;;3.50;3.00;;;;;;;;5195530;28;8812;-67
2022/06/08 03:46:27;;;;;;;;;7.00;7.00;;;;;;;;5193026;28;8790;-67
2022/06/08 03:49:03;;;;;;;;;1.00;1.00;;;;;;;;5209900;28;8867;-67
2022/06/08 03:51:36;;;;;;;;;5.00;5.00;;;;;;;;5209302;28;8813;-68
2022/06/08 03:54:12;;;;;;;;;2.75;2.75;;;;;;;;5173580;28;8805;-68
2022/06/08 03:56:47;;;;;;;;;4.75;4.75;;;;;;;;5182496;28;9615;-68
2022/06/08 03:59:19;;;;;;;;;1.00;1.00;;;;;;;;5224728;28;9575;-68
2022/06/08 04:01:56;;;;;;;;;4.00;4.00;;;;;;;;5209217;28;8933;-68
2022/06/08 04:04:28;;;;;;;;;3.25;3.25;;;;;;;;5192386;28;9583;-67
2022/06/08 04:07:17;;;;;;;;;5.50;5.50;;;;;;;;5195345;28;8790;-67
2022/06/08 04:09:51;;;;;;;;;2.00;2.00;;;;;;;;5209230;28;8783;-66
2022/06/08 04:12:23;;;;;;;;;5.00;5.00;;;;;;;;5192406;28;8835;-68
2022/06/08 04:15:41;;;;;;;;;1.25;1.25;;;;;;;;5209027;28;8850;-68
2022/06/08 04:18:05;;;;;;;;;3.00;3.00;;;;;;;;5208924;28;8834;-67
2022/06/08 04:20:36;;;;;;;;;8.00;8.00;;;;;;;;5209063;28;8774;-68
2022/06/08 04:23:08;;;;;;;;;5.00;5.00;;;;;;;;5208609;28;8783;-69
2022/06/08 04:25:42;;;;;;;;;1.75;1.75;;;;;;;;5208792;28;8905;-68
2022/06/08 04:28:15;;;;;;;;;3.50;3.50;;;;;;;;5209108;28;8783;-68
2022/06/08 04:30:49;;;;;;;;;5.25;5.25;;;;;;;;5208958;28;8786;-69
2022/06/08 04:33:38;;;;;;;;;5.00;5.00;;;;;;;;5226132;28;8887;-70
2022/06/08 04:36:29;;;;;;;;;5.50;5.50;;;;;;;;5226784;28;8767;-72
2022/06/08 04:39:00;;;;;;;;;4.25;4.25;;;;;;;;5188132;28;8860;-69
2022/06/08 04:41:34;;;;;;;;;1.00;1.00;;;;;;;;5206334;28;8817;-72
2022/06/08 04:44:06;;;;;;;;;7.67;7.67;;;;;;;;5207255;28;8797;-69
2022/06/08 04:46:38;;;;;;;;;4.75;4.00;;;;;;;;5206470;28;8829;-71
2022/06/08 04:49:15;;;;;;;;;5.50;5.50;;;;;;;;5186350;28;8809;-71
2022/06/08 04:51:48;;;;;;;;;2.25;2.25;;;;;;;;5169732;28;9536;-73
2022/06/08 04:54:20;;;;;;;;;1.25;1.25;;;;;;;;5186133;28;8970;-72
2022/06/08 04:56:52;;;;;;;;;4.25;4.25;;;;;;;;5202388;28;8815;-69
2022/06/08 04:59:23;;;;;;;;;4.25;4.25;;;;;;;;5226876;28;8859;-71
2022/06/08 05:02:04;;;;;;;;;8.25;8.25;;;;;;;;5227096;28;8847;-69
2022/06/08 05:04:36;;;;;;;;;7.50;7.50;;;;;;;;5210250;28;9612;-71
2022/06/08 05:07:08;;;;;;;;;7.00;7.00;;;;;;;;5210304;28;8789;-69
2022/06/08 05:09:39;;;;;;;;;3.00;3.00;;;;;;;;5210348;28;8789;-68
2022/06/08 05:12:29;;;;;;;;;3.00;3.00;;;;;;;;5244247;28;8828;-69
2022/06/08 05:15:00;;;;;;;;;5.25;5.25;;;;;;;;5225976;28;9552;-70
2022/06/08 05:17:33;;;;;;;;;0.00;0.00;;;;;;;;5216442;28;8842;-70
2022/06/08 05:20:06;;;;;;;;;3.75;3.75;;;;;;;;5191427;28;8817;-71
2022/06/08 05:22:38;;;;;;;;;3.00;3.00;;;;;;;;5224382;28;8913;-69
2022/06/08 05:25:11;;;;;;;;;3.75;3.75;;;;;;;;5206366;28;8775;-68
2022/06/08 05:27:42;;;;;;;;;3.25;3.25;;;;;;;;5188362;28;8819;-69
2022/06/08 05:30:14;;;;;;;;;7.25;6.25;;;;;;;;5227813;28;9616;-69
2022/06/08 05:32:48;;;;;;;;;11.75;11.75;;;;;;;;5221160;28;8860;-68
2022/06/08 05:35:38;;;;;;;;;9.25;9.25;;;;;;;;5225494;28;8783;-68
2022/06/08 05:38:12;;;;;;;;;5.75;5.75;;;;;;;;5190912;28;8810;-68
2022/06/08 05:40:44;;;;;;;;;9.00;9.00;;;;;;;;5239857;28;8876;-68
2022/06/08 05:43:17;;;;;;;;;5.50;5.50;;;;;;;;5221553;28;8801;-69
2022/06/08 05:46:07;;;;;;;;;3.50;3.50;;;;;;;;5225221;28;8783;-69
2022/06/08 05:48:39;;;;;;;;;5.75;5.75;;;;;;;;5224642;28;8806;-69
2022/06/08 05:51:12;;;;;;;;;5.50;5.50;;;;;;;;5224010;28;9557;-69
2022/06/08 05:53:45;;;;;;;;;3.00;3.00;;;;;;;;5191182;28;8807;-69
2022/06/08 05:56:19;;;;;;;;;2.75;2.75;;;;;;;;5190699;28;8810;-69
2022/06/08 05:59:19;;;;;;;;;4.50;4.50;;;;;;;;5224995;28;8988;-69
2022/06/08 06:01:50;;;;;;;;;5.75;5.75;;;;;;;;5207890;28;8906;-69
2022/06/08 06:04:25;;;;;;;;;3.75;3.75;;;;;;;;5207006;28;9497;-68
2022/06/08 06:07:15;;;;;;;;;0.00;0.00;;;;;;;;5223967;28;8833;-72
2022/06/08 06:10:00;;;;;;;;;4.00;4.00;;;;;;;;5185680;28;8796;-71
2022/06/08 06:12:51;;;;;;;;;2.50;2.50;;;;;;;;5206793;28;8788;-70
2022/06/08 06:15:24;;;;;;;;;4.00;4.00;;;;;;;;5225923;28;8804;-69
2022/06/08 06:17:55;;;;;;;;;2.50;2.50;;;;;;;;5205381;28;8842;-72
2022/06/08 06:20:26;;;;;;;;;3.00;3.00;;;;;;;;5223908;28;8791;-70
2022/06/08 06:23:30;;;;;;;;;1.00;1.00;;;;;;;;5218844;28;8917;-69
2022/06/08 06:26:36;;;;;;;;;6.75;6.75;;;;;;;;5198000;28;8847;-69
2022/06/08 06:29:25;;;;;;;;;3.75;3.75;;;;;;;;5215008;28;8773;-69
2022/06/08 06:32:21;;;;;;;;;5.50;5.50;;;;;;;;5248726;28;8821;-70
2022/06/08 06:34:55;;;;;;;;;4.00;4.00;;;;;;;;5174336;28;8777;-69
2022/06/08 06:37:28;;;;;;;;;3.75;3.75;;;;;;;;5208515;28;8765;-69
2022/06/08 06:39:59;;;;;;;;;2.00;2.00;;;;;;;;5202238;28;8791;-69
2022/06/08 06:42:34;;;;;;;;;2.00;2.00;;;;;;;;5210929;28;8846;-69
2022/06/08 06:45:23;;;;;;;;;2.50;2.50;;;;;;;;5229082;28;8865;-69
2022/06/08 06:48:13;;;;;;;;;2.75;2.75;;;;;;;;5211510;28;8795;-68
2022/06/08 06:50:45;;;;;;;;;2.75;2.75;;;;;;;;5211338;28;8783;-68
2022/06/08 06:53:16;;;;;;;;;2.00;2.00;;;;;;;;5219800;28;8797;-69
2022/06/08 06:55:56;;;;;;;;;7.00;7.00;;;;;;;;5215101;28;9603;-69
2022/06/08 06:58:37;;;;;;;;;5.75;4.75;;;;;;;;5215295;28;8811;-69
2022/06/08 07:01:10;;;;;;;;;4.00;4.00;;;;;;;;5231660;28;8780;-69
2022/06/08 07:03:43;;;;;;;;;3.25;3.25;;;;;;;;5231551;28;8794;-69
2022/06/08 07:06:14;;;;;;;;;4.75;4.50;;;;;;;;5214834;28;8801;-69
2022/06/08 07:08:47;;;;;;;;;4.50;4.50;;;;;;;;5199687;28;8803;-68
2022/06/08 07:11:41;;;;;;;;;5.25;5.25;;;;;;;;5195895;28;8835;-69
2022/06/08 07:14:20;;;;;;;;;1.50;1.50;;;;;;;;5194658;28;8814;-69
2022/06/08 07:17:11;;;;;;;;;2.00;2.00;;;;;;;;5217924;28;8822;-70
2022/06/08 07:19:47;;;;;;;;;3.75;3.75;;;;;;;;5198632;28;8820;-69
2022/06/08 07:22:19;;;;;;;;;7.50;7.50;;;;;;;;5214585;28;8801;-69
2022/06/08 07:24:50;;;;;;;;;4.33;4.33;;;;;;;;5209934;28;9522;-69
2022/06/08 07:27:39;;;;;;;;;3.00;3.00;;;;;;;;5204298;28;11146;-69
2022/06/08 07:30:11;;;;;;;;;4.00;4.00;;;;;;;;5225518;28;8993;-69
2022/06/08 07:32:42;;;;;;;;;1.00;1.00;;;;;;;;5192875;28;8794;-70
2022/06/08 07:35:13;;;;;;;;;3.50;3.50;;;;;;;;5210156;28;8793;-69
2022/06/08 07:37:44;;;;;;;;;6.50;6.50;;;;;;;;5223449;28;8832;-70
2022/06/08 07:40:16;;;;;;;;;4.75;4.50;;;;;;;;5218997;28;8822;-69
2022/06/08 07:42:47;;;;;;;;;1.00;1.00;;;;;;;;5209829;28;8875;-69
2022/06/08 07:45:18;;;;;;;;;0.00;0.00;;;;;;;;5193103;28;8786;-68
2022/06/08 07:50:40;;;;;;;;;3.75;3.75;;;;;;;;5195534;28;8825;-68
2022/06/08 07:53:12;;;;;;;;;1.75;1.75;;;;;;;;5248222;28;8793;-69
2022/06/08 07:55:43;;;;;;;;;5.25;5.25;;;;;;;;5188462;28;8820;-69
2022/06/08 07:58:16;;;;;;;;;3.25;3.25;;;;;;;;5191393;28;8813;-69
2022/06/08 08:00:47;;;;;;;;;3.00;3.00;;;;;;;;5243010;28;8815;-69
2022/06/08 08:03:19;;;;;;;;;1.50;1.50;;;;;;;;5226875;28;8803;-72
2022/06/08 08:06:09;;;;;;;;;5.00;5.00;;;;;;;;5211707;28;8905;-69
2022/06/08 08:08:40;;;;;;;;;1.50;1.50;;;;;;;;5209403;28;8779;-69
2022/06/08 08:11:11;;;;;;;;;1.33;1.33;;;;;;;;5192360;28;9536;-70
2022/06/08 08:14:03;;;;;;;;;5.50;5.50;;;;;;;;5212194;28;9550;-69
2022/06/08 08:16:34;;;;;;;;;0.67;0.67;;;;;;;;5239282;28;9499;-69
2022/06/08 08:19:05;;;;;;;;;3.00;3.00;;;;;;;;5247203;28;11434;-69
2022/06/08 08:21:56;;;;;;;;;1.00;1.00;;;;;;;;5216636;28;8810;-70
2022/06/08 08:24:27;;;;;;;;;3.25;3.25;;;;;;;;5226589;28;8771;-70
2022/06/08 08:26:59;;;;;;;;;1.75;1.75;;;;;;;;5192059;28;8787;-71
2022/06/08 08:29:30;;;;;;;;;2.33;2.33;;;;;;;;5227529;28;8815;-71
2022/06/08 08:32:02;;;;;;;;;3.00;2.00;;;;;;;;5211717;28;9410;-69
2022/06/08 08:34:33;;;;;;;;;6.50;6.50;;;;;;;;5209866;28;9702;-69
2022/06/08 08:37:03;;;;;;;;;3.00;3.00;;;;;;;;5226252;28;8856;-69
2022/06/08 08:39:34;;;;;;;;;5.50;5.50;;;;;;;;5209112;28;8947;-69
2022/06/08 08:42:23;;;;;;;;;3.00;3.00;;;;;;;;5209096;28;8787;-70
2022/06/08 08:44:57;;;;;;;;;1.00;1.00;;;;;;;;5191499;28;8853;-70
2022/06/08 08:47:46;;;;;;;;;3.00;3.00;;;;;;;;5208738;28;8774;-70
2022/06/08 08:50:33;;;;;;;;;2.00;2.00;;;;;;;;5192010;28;9518;-70
2022/06/08 08:53:50;;;;;;;;;0.00;0.00;;;;;;;;5211561;28;8779;-70
2022/06/08 08:56:50;;;;;;;;;6.50;6.50;;;;;;;;5164108;28;8894;-71
2022/06/08 08:59:26;;;;;;;;;3.75;3.75;;;;;;;;5183875;28;8844;-69
2022/06/08 09:01:58;;;;;;;;;1.50;1.50;;;;;;;;5204104;28;8781;-71
2022/06/08 09:04:36;;;;;;;;;1.25;1.25;;;;;;;;5187487;28;8784;-71
2022/06/08 09:07:12;;;;;;;;;4.50;4.50;;;;;;;;5205190;28;8784;-70
2022/06/08 09:10:02;;;;;;;;;4.25;4.25;;;;;;;;5204586;28;9618;-72
2022/06/08 09:12:34;;;;;;;;;2.50;2.50;;;;;;;;5204033;28;8820;-72
2022/06/08 09:15:05;;;;;;;;;0.67;0.67;;;;;;;;5187140;28;8839;-70
2022/06/08 09:17:40;;;;;;;;;1.00;1.00;;;;;;;;5204956;28;11467;-70
2022/06/08 09:20:31;;;;;;;;;3.00;3.00;;;;;;;;5205307;28;8788;-71
2022/06/08 09:23:38;;;;;;;;;5.00;5.00;;;;;;;;5204793;28;8764;-71
2022/06/08 09:26:14;;;;;;;;;6.00;6.00;;;;;;;;5187216;28;8835;-70
2022/06/08 09:28:55;;;;;;;;;4.50;4.50;;;;;;;;5203847;28;8823;-72
2022/06/08 09:31:29;;;;;;;;;0.75;0.75;;;;;;;;5204712;28;8772;-72
2022/06/08 09:34:21;;;;;;;;;3.00;3.00;;;;;;;;5205287;28;8823;-70
2022/06/08 09:37:12;;;;;;;;;6.50;6.50;;;;;;;;5203676;28;8784;-71
2022/06/08 09:39:44;;;;;;;;;4.25;4.25;;;;;;;;5203331;28;8836;-70
2022/06/08 09:42:21;;;;;;;;;1.50;1.50;;;;;;;;5187055;28;8802;-70
2022/06/08 09:45:04;;;;;;;;;4.50;4.50;;;;;;;;5205337;28;8874;-70
2022/06/08 09:53:48;;;;;;;;;7.00;7.00;;;;;;;;5203519;28;8800;-70
2022/06/08 09:56:20;;;;;;;;;4.00;4.00;;;;;;;;5204644;28;8835;-71
2022/06/08 09:58:50;;;;;;;;;2.67;2.67;;;;;;;;5208377;28;9028;-70
2022/06/08 10:01:32;;;;;;;;;4.33;4.33;;;;;;;;5208824;28;8772;-70
2022/06/08 10:04:23;;;;;;;;;2.00;2.00;;;;;;;;5223943;28;8796;-70
2022/06/08 10:06:59;;;;;;;;;7.75;7.75;;;;;;;;5206560;28;8834;-71
2022/06/08 10:09:35;;;;;;;;;3.00;3.00;;;;;;;;5229731;28;8810;-72
2022/06/08 10:12:15;;;;;;;;;4.25;4.25;;;;;;;;5215097;28;8876;-71
2022/06/08 10:14:53;;;;;;;;;7.75;7.75;;;;;;;;5198533;28;8793;-71
2022/06/08 10:17:27;;;;;;;;;1.75;1.75;;;;;;;;5215088;28;8890;-72
2022/06/08 10:20:01;;;;;;;;;1.00;1.00;;;;;;;;5212126;28;8927;-71
2022/06/08 10:22:42;;;;;;;;;8.00;8.00;;;;;;;;5209460;28;8902;-71
2022/06/08 10:25:25;;;;;;;;;5.50;5.50;;;;;;;;5188899;28;8788;-72
2022/06/08 10:28:02;;;;;;;;;9.00;9.00;;;;;;;;5206528;28;8804;-71
2022/06/08 10:30:34;;;;;;;;;4.00;4.00;;;;;;;;5206173;28;8799;-70
2022/06/08 10:33:26;;;;;;;;;4.25;4.25;;;;;;;;5188580;28;8800;-69
2022/06/08 10:35:59;;;;;;;;;5.75;5.75;;;;;;;;5205790;28;8799;-70
2022/06/08 10:38:32;;;;;;;;;4.25;4.25;;;;;;;;5188890;28;8917;-70
2022/06/08 10:44:03;;;;;;;;;4.50;4.50;;;;;;;;5195405;28;8784;-71
2022/06/08 10:46:54;;;;;;;;;2.00;2.00;;;;;;;;5206752;28;8764;-70
2022/06/08 10:49:49;;;;;;;;;8.75;8.75;;;;;;;;5207539;28;8792;-70
2022/06/08 10:52:20;;;;;;;;;22.75;21.00;;;;;;;;5205734;28;8793;-70
2022/06/08 10:55:15;;;;;;;;;19.00;18.75;;;;;;;;5205941;28;8796;-71
2022/06/08 10:57:50;;;;;;;;;13.00;13.00;;;;;;;;5205083;28;8824;-70
2022/06/08 11:00:25;;;;;;;;;10.75;10.75;;;;;;;;5189008;28;8931;-70
2022/06/08 11:03:26;;;;;;;;;12.50;12.50;;;;;;;;5191460;28;8839;-71
2022/06/08 11:05:56;;;;;;;;;11.00;11.00;;;;;;;;5204957;28;8780;-71
2022/06/08 11:08:51;;;;;;;;;10.00;10.00;;;;;;;;5206332;28;8796;-71
2022/06/08 11:11:57;;;;;;;;;11.75;11.75;;;;;;;;5188150;28;8835;-71
2022/06/08 11:14:31;;;;;;;;;6.75;6.75;;;;;;;;5191501;28;8923;-72
2022/06/08 11:17:05;;;;;;;;;6.50;6.50;;;;;;;;5213907;28;8784;-70
2022/06/08 11:19:36;;;;;;;;;7.50;7.00;;;;;;;;5188473;28;8820;-70
2022/06/08 11:22:15;;;;;;;;;13.00;13.00;;;;;;;;5204501;28;8784;-71
2022/06/08 11:24:48;;;;;;;;;6.25;6.25;;;;;;;;5172531;28;8785;-72
2022/06/08 11:27:19;;;;;;;;;10.00;9.25;;;;;;;;5188168;28;9544;-72
2022/06/08 11:30:22;;;;;;;;;8.50;8.50;;;;;;;;5205078;28;8939;-72
2022/06/08 11:32:53;;;;;;;;;8.00;8.00;;;;;;;;5206084;28;8788;-71
2022/06/08 11:35:39;;;;;;;;;10.67;10.67;;;;;;;;5206458;28;8799;-71
2022/06/08 11:38:17;;;;;;;;;9.50;9.50;;;;;;;;5188532;28;8842;-71
2022/06/08 11:40:48;;;;;;;;;13.25;12.75;;;;;;;;5188254;28;9653;-71
2022/06/08 11:43:19;;;;;;;;;12.50;12.25;;;;;;;;5188201;28;8824;-71
2022/06/08 11:45:54;;;;;;;;;6.50;6.50;;;;;;;;5205726;28;9491;-70
2022/06/08 11:48:27;;;;;;;;;10.50;10.50;;;;;;;;5188071;28;8812;-71
2022/06/08 11:51:00;;;;;;;;;11.50;10.75;;;;;;;;5205632;28;8788;-74
2022/06/08 11:53:33;;;;;;;;;11.00;11.00;;;;;;;;5188266;28;8784;-72
2022/06/08 11:56:13;;;;;;;;;4.25;4.25;;;;;;;;5159404;28;1408578;-72
2022/06/08 11:58:49;;;;;;;;;7.50;7.50;;;;;;;;5193034;28;8799;-71
2022/06/08 12:01:22;;;;;;;;;9.50;9.50;;;;;;;;5209467;28;8783;-71
2022/06/08 12:04:04;;;;;;;;;5.75;5.75;;;;;;;;5227196;28;8797;-72
2022/06/08 12:06:38;;;;;;;;;6.50;6.50;;;;;;;;5209502;28;9463;-72
2022/06/08 12:09:15;;;;;;;;;8.00;8.00;;;;;;;;5192921;28;8798;-72
2022/06/08 12:11:47;;;;;;;;;5.25;5.25;;;;;;;;5193378;28;8818;-71
2022/06/08 12:14:18;;;;;;;;;7.25;7.25;;;;;;;;5227073;28;8798;-72
2022/06/08 12:16:58;;;;;;;;;7.33;7.33;;;;;;;;5209314;28;8798;-72
2022/06/08 12:19:40;;;;;;;;;5.00;5.00;;;;;;;;5208814;28;11556;-71
2022/06/08 12:22:33;;;;;;;;;5.00;5.00;;;;;;;;5226745;28;8835;-70
2022/06/08 12:25:24;;;;;;;;;7.25;7.25;;;;;;;;5211989;28;8782;-70
2022/06/08 12:27:59;;;;;;;;;6.00;6.00;;;;;;;;5208778;28;8835;-71
2022/06/08 12:30:48;;;;;;;;;9.00;9.00;;;;;;;;5211738;28;8770;-71
2022/06/08 12:33:19;;;;;;;;;6.67;6.67;;;;;;;;5226546;28;8774;-72
2022/06/08 12:35:56;;;;;;;;;10.33;10.33;;;;;;;;5192637;28;8795;-72
2022/06/08 12:38:28;;;;;;;;;4.75;4.75;;;;;;;;5226523;28;8814;-72
2022/06/08 12:40:59;;;;;;;;;7.00;7.00;;;;;;;;5208589;28;8798;-70
2022/06/08 12:43:34;;;;;;;;;6.67;6.67;;;;;;;;5192201;28;9529;-71
2022/06/08 12:46:17;;;;;;;;;8.00;8.00;;;;;;;;5209158;28;8811;-70
2022/06/08 12:48:56;;;;;;;;;7.75;7.75;;;;;;;;5208724;28;8864;-71
2022/06/08 12:51:33;;;;;;;;;7.50;7.50;;;;;;;;5192065;28;8925;-71
2022/06/08 12:54:13;;;;;;;;;9.00;9.00;;;;;;;;5192111;28;8798;-71
2022/06/08 12:56:45;;;;;;;;;7.75;7.75;;;;;;;;5208447;28;8917;-71
2022/06/08 12:59:17;;;;;;;;;4.25;4.25;;;;;;;;5208217;28;8838;-71
2022/06/08 13:02:20;;;;;;;;;8.25;8.25;;;;;;;;5211004;28;8779;-71
2022/06/08 13:04:51;;;;;;;;;5.00;5.00;;;;;;;;5226130;28;9576;-70
2022/06/08 13:07:27;;;;;;;;;5.00;5.00;;;;;;;;5225971;28;8918;-71
2022/06/08 13:10:03;;;;;;;;;6.00;6.00;;;;;;;;5193298;28;8794;-71
2022/06/08 13:12:37;;;;;;;;;10.00;10.00;;;;;;;;5191871;28;8803;-71
2022/06/08 13:15:16;;;;;;;;;7.25;7.25;;;;;;;;5191722;28;8759;-70
2022/06/08 13:17:48;;;;;;;;;13.00;13.00;;;;;;;;5207904;28;8787;-71
2022/06/08 13:20:23;;;;;;;;;6.50;6.50;;;;;;;;5208178;28;9509;-71
2022/06/08 13:23:13;;;;;;;;;12.75;12.75;;;;;;;;5226318;28;8779;-71
2022/06/08 13:25:46;;;;;;;;;7.25;7.25;;;;;;;;5225898;28;8847;-71
2022/06/08 13:28:23;;;;;;;;;8.75;8.75;;;;;;;;5207843;28;8787;-71
2022/06/08 13:30:54;;;;;;;;;7.25;7.25;;;;;;;;5225701;28;8797;-71
2022/06/08 13:36:31;;;;;;;;;7.75;7.75;;;;;;;;5225990;28;8818;-71
2022/06/08 13:39:08;;;;;;;;;4.00;4.00;;;;;;;;5225622;28;8814;-71
2022/06/08 13:42:05;;;;;;;;;5.50;5.50;;;;;;;;5208244;28;8755;-71
2022/06/08 13:44:41;;;;;;;;;6.00;6.00;;;;;;;;5191398;28;8766;-71
2022/06/08 13:47:33;;;;;;;;;4.50;4.50;;;;;;;;5225693;28;8790;-71
2022/06/08 13:50:12;;;;;;;;;4.75;4.75;;;;;;;;5225551;28;8817;-71
2022/06/08 13:52:44;;;;;;;;;6.00;6.00;;;;;;;;5208328;28;8775;-71
2022/06/08 13:55:17;;;;;;;;;6.25;6.25;;;;;;;;5225623;28;8786;-70
2022/06/08 13:58:08;;;;;;;;;5.00;5.00;;;;;;;;5224883;28;8838;-71
2022/06/08 14:00:43;;;;;;;;;4.75;4.75;;;;;;;;5190878;28;8778;-70
2022/06/08 14:03:20;;;;;;;;;2.00;2.00;;;;;;;;5191109;28;8786;-70
2022/06/08 14:14:25;;;;;;;;;7.00;7.00;;;;;;;;5225160;28;9518;-71
2022/06/08 14:16:57;;;;;;;;;1.33;1.33;;;;;;;;5207313;28;8881;-71
2022/06/08 14:19:49;;;;;;;;;4.00;4.00;;;;;;;;5210266;28;10736;-71
2022/06/08 14:22:22;;;;;;;;;5.50;5.50;;;;;;;;5207415;28;9005;-71
2022/06/08 14:25:14;;;;;;;;;4.75;4.75;;;;;;;;5217066;28;8829;-70
2022/06/08 14:27:47;;;;;;;;;1.25;1.25;;;;;;;;5206004;28;8943;-72
2022/06/08 14:30:18;;;;;;;;;4.00;4.00;;;;;;;;5243524;28;8884;-71
2022/06/08 14:32:52;;;;;;;;;3.00;3.00;;;;;;;;5227762;28;8777;-74
2022/06/08 14:35:34;;;;;;;;;1.00;1.00;;;;;;;;5245795;28;8788;-72
2022/06/08 14:38:05;;;;;;;;;1.25;1.25;;;;;;;;5194473;28;8961;-72
2022/06/08 14:40:39;;;;;;;;;3.25;3.25;;;;;;;;5228477;28;8977;-72
2022/06/08 14:43:10;;;;;;;;;0.00;0.00;;;;;;;;5218647;28;8880;-71
2022/06/08 14:45:42;;;;;;;;;4.00;4.00;;;;;;;;5228770;28;8795;-71
2022/06/08 14:48:15;;;;;;;;;2.00;2.00;;;;;;;;5228279;28;10281;-72
2022/06/08 14:50:47;;;;;;;;;5.00;5.00;;;;;;;;5229228;28;8834;-71
2022/06/08 14:53:20;;;;;;;;;2.75;2.75;;;;;;;;5237287;28;8801;-72
2022/06/08 14:58:42;;;;;;;;;7.40;7.40;;;;;;;;5231231;28;8824;-72
2022/06/08 15:01:15;;;;;;;;;1.75;1.75;;;;;;;;5249048;28;8816;-70
2022/06/08 15:03:48;;;;;;;;;2.75;2.75;;;;;;;;5214410;28;8894;-70
2022/06/08 15:06:22;;;;;;;;;5.00;5.00;;;;;;;;5215271;28;8792;-71
2022/06/08 15:08:53;;;;;;;;;4.00;4.00;;;;;;;;5214143;28;8827;-72
2022/06/08 15:14:21;;;;;;;;;2.50;2.50;;;;;;;;5228532;28;9486;-71
2022/06/08 15:16:52;;;;;;;;;6.00;6.00;;;;;;;;5209700;28;8806;-71
2022/06/08 15:19:27;;;;;;;;;2.75;2.75;;;;;;;;5227821;28;8892;-70
2022/06/08 15:21:59;;;;;;;;;2.50;2.50;;;;;;;;5193935;28;8788;-71
2022/06/08 15:24:49;;;;;;;;;1.75;1.75;;;;;;;;5210400;28;8818;-71
2022/06/08 15:27:32;;;;;;;;;5.75;5.75;;;;;;;;5210556;28;8803;-71
2022/06/08 15:30:05;;;;;;;;;5.25;5.25;;;;;;;;5198705;28;8878;-71
2022/06/08 15:32:36;;;;;;;;;3.00;3.00;;;;;;;;5214272;28;8804;-71
2022/06/08 15:35:11;;;;;;;;;5.67;5.67;;;;;;;;5248336;28;8777;-71
2022/06/08 15:37:45;;;;;;;;;3.00;3.00;;;;;;;;5225543;28;10104;-72
2022/06/08 15:40:21;;;;;;;;;1.50;1.50;;;;;;;;5218270;28;8892;-72
2022/06/08 15:42:52;;;;;;;;;3.00;3.00;;;;;;;;5226670;28;8924;-71
2022/06/08 15:45:24;;;;;;;;;3.00;3.00;;;;;;;;5227498;28;8775;-71
2022/06/08 15:47:59;;;;;;;;;2.25;2.25;;;;;;;;5225884;28;8783;-72
2022/06/08 15:50:32;;;;;;;;;3.75;3.75;;;;;;;;5227189;28;8787;-71
2022/06/08 15:53:06;;;;;;;;;23.40;23.40;;;;;;;;5208041;28;8794;-71
2022/06/08 15:55:41;;;;;;;;;5.50;5.50;;;;;;;;5211382;28;8797;-72
2022/06/08 15:58:14;;;;;;;;;21.40;20.00;;;;;;;;5225820;28;8809;-72
2022/06/08 16:00:45;;;;;;;;;6.00;6.00;;;;;;;;5227464;28;8770;-71
2022/06/08 16:03:16;;;;;;;;;14.75;14.50;;;;;;;;5225737;28;8821;-72
2022/06/08 16:05:47;;;;;;;;;12.50;12.50;;;;;;;;5225685;28;9721;-71
2022/06/08 16:08:18;;;;;;;;;5.00;5.00;;;;;;;;5225746;28;8908;-72
2022/06/08 16:10:51;;;;;;;;;31.80;31.00;;;;;;;;5227084;28;8810;-71
2022/06/08 16:13:22;;;;;;;;;27.80;27.80;;;;;;;;5226764;28;8798;-71
2022/06/08 16:15:53;;;;;;;;;11.75;11.75;;;;;;;;5219331;28;8807;-72
2022/06/08 16:18:27;;;;;;;;;4.50;4.50;;;;;;;;5209271;28;8810;-71
2022/06/08 16:20:58;;;;;;;;;5.50;5.50;;;;;;;;5209045;28;9619;-71
2022/06/08 16:23:29;;;;;;;;;5.00;5.00;;;;;;;;5226430;28;8787;-72
2022/06/08 16:26:18;;;;;;;;;4.75;4.75;;;;;;;;5208511;28;11418;-72